Time;durP1;ratioP1;P1;durP2;ratioP2;P2;SDS_P1;SDS_P2;PMS_P1;PMS_P2;Temp;Humidity;BMP_temperature;BMP_pressure;BME280_temperature;BME280_humidity;BME280_pressure;Samples;Min_cycle;Max_cycle;Signal;HPM_P1;HPM_P2
2022/07/06 00:00:58;;;;;;;3.50;1.50;;;;;;;14.94;69.15;101570.86;107631;1279;71889;-86
2022/07/06 00:03:25;;;;;;;3.80;1.30;;;;;;;14.94;68.98;101571.85;107804;1278;62441;-86
2022/07/06 00:05:52;;;;;;;5.20;1.50;;;;;;;14.96;69.16;101570.84;107634;1279;60286;-86
2022/07/06 00:08:19;;;;;;;4.60;1.10;;;;;;;14.97;69.20;101568.55;107585;1279;76175;-85
2022/07/06 00:10:47;;;;;;;3.60;1.30;;;;;;;14.98;69.36;101570.59;107620;1279;72426;-86
2022/07/06 00:13:14;;;;;;;4.60;1.20;;;;;;;14.98;69.32;101566.77;107605;1279;72894;-86
2022/07/06 00:15:41;;;;;;;6.50;1.30;;;;;;;14.98;69.43;101568.23;107877;1278;62689;-86
2022/07/06 00:18:08;;;;;;;5.40;1.20;;;;;;;14.97;69.32;101564.48;107681;1279;60341;-86
2022/07/06 00:20:35;;;;;;;4.90;1.40;;;;;;;14.98;69.14;101564.54;107357;1279;75156;-85
2022/07/06 00:23:02;;;;;;;3.30;1.20;;;;;;;14.99;69.07;101565.77;107668;1280;71038;-86
2022/07/06 00:25:29;;;;;;;4.70;1.20;;;;;;;15.03;68.82;101566.05;107904;1279;72451;-86
2022/07/06 00:27:56;;;;;;;4.20;1.30;;;;;;;15.05;68.53;101567.48;107949;1278;62099;-85
2022/07/06 00:30:28;;;;;;;4.70;1.20;;;;;;;15.10;68.13;101563.81;107869;1279;59857;-86
2022/07/06 00:32:55;;;;;;;3.40;1.20;;;;;;;15.13;67.25;101558.64;107909;1279;75076;-84
2022/07/06 00:35:22;;;;;;;2.90;0.90;;;;;;;15.16;66.63;101559.66;107756;1279;71466;-85
2022/07/06 00:37:49;;;;;;;3.70;1.10;;;;;;;15.20;65.96;101562.23;107869;1279;71067;-85
2022/07/06 00:40:17;;;;;;;3.30;1.00;;;;;;;15.23;65.37;101556.80;107697;1279;62125;-85
2022/07/06 00:42:46;;;;;;;2.50;1.00;;;;;;;15.28;65.07;101561.40;107578;1279;60186;-85
2022/07/06 00:45:15;;;;;;;3.80;1.00;;;;;;;15.32;64.67;101560.13;107759;1279;75985;-85
2022/07/06 00:47:43;;;;;;;3.00;0.80;;;;;;;15.34;64.14;101555.05;107419;1279;71964;-85
2022/07/06 00:50:15;;;;;;;3.30;1.00;;;;;;;15.33;63.81;101553.27;107616;1279;73927;-85
2022/07/06 00:52:44;;;;;;;3.70;1.00;;;;;;;15.34;63.76;101551.98;107379;1281;63861;-85
2022/07/06 00:55:11;;;;;;;6.00;1.30;;;;;;;15.34;63.48;101555.55;107649;1279;61159;-84
2022/07/06 00:57:39;;;;;;;6.20;1.10;;;;;;;15.34;63.34;101561.30;107432;1279;75092;-85
2022/07/06 01:00:09;;;;;;;3.70;0.90;;;;;;;15.32;63.46;101561.11;107478;1279;71552;-85
2022/07/06 01:02:37;;;;;;;2.70;1.10;;;;;;;15.31;63.37;101567.73;107598;1280;73186;-84
2022/07/06 01:05:06;;;;;;;3.70;1.10;;;;;;;15.28;63.13;101567.24;107880;1278;61318;-85
2022/07/06 01:07:33;;;;;;;3.30;1.10;;;;;;;15.27;63.13;101562.46;107866;1279;62119;-85
2022/07/06 01:10:02;;;;;;;3.60;1.00;;;;;;;15.26;62.86;101562.48;107862;1279;74854;-86
2022/07/06 01:12:30;;;;;;;3.90;1.10;;;;;;;15.26;62.32;101562.85;107821;1279;72667;-85
2022/07/06 01:14:57;;;;;;;3.40;0.90;;;;;;;15.27;62.35;101562.38;107614;1279;74274;-85
2022/07/06 01:17:25;;;;;;;3.20;0.90;;;;;;;15.26;62.76;101561.53;107726;1279;62086;-85
2022/07/06 01:19:53;;;;;;;4.30;0.90;;;;;;;15.25;62.98;101557.62;107099;1280;533301;-86
2022/07/06 01:22:20;;;;;;;4.10;0.90;;;;;;;15.26;63.07;101557.75;107554;1281;74871;-86
2022/07/06 01:24:46;;;;;;;4.30;1.00;;;;;;;15.27;63.22;101560.98;107887;1279;71433;-85
2022/07/06 01:27:13;;;;;;;6.10;1.10;;;;;;;15.28;63.34;101560.78;107861;1279;74048;-85
2022/07/06 01:29:41;;;;;;;2.20;1.00;;;;;;;15.29;63.62;101559.16;107522;1279;63089;-85
2022/07/06 01:32:08;;;;;;;4.70;1.40;;;;;;;15.31;63.79;101557.16;107822;1279;60925;-85
2022/07/06 01:34:35;;;;;;;3.30;1.00;;;;;;;15.32;63.95;101559.56;107845;1279;74821;-85
2022/07/06 01:37:02;;;;;;;4.50;1.10;;;;;;;15.32;64.15;101557.25;107888;1279;70128;-86
2022/07/06 01:39:30;;;;;;;4.40;1.20;;;;;;;15.32;64.19;101560.25;107862;1279;73825;-86
2022/07/06 01:41:57;;;;;;;2.70;1.00;;;;;;;15.33;64.27;101550.44;107600;1279;60926;-86
2022/07/06 01:44:24;;;;;;;3.00;1.00;;;;;;;15.34;64.25;101551.84;107651;1279;61668;-86
2022/07/06 01:46:51;;;;;;;4.30;1.30;;;;;;;15.32;64.19;101553.88;107500;1279;74971;-85
2022/07/06 01:49:18;;;;;;;5.50;1.20;;;;;;;15.29;64.17;101553.23;107742;1279;72607;-86
2022/07/06 01:51:45;;;;;;;6.50;1.30;;;;;;;15.28;64.24;101551.74;107512;1279;72669;-86
2022/07/06 01:54:12;;;;;;;2.60;0.90;;;;;;;15.27;64.55;101551.94;107488;1279;61898;-85
2022/07/06 01:56:39;;;;;;;4.30;0.90;;;;;;;15.24;65.04;101554.08;107713;1279;62358;-85
2022/07/06 01:59:06;;;;;;;2.80;1.00;;;;;;;15.22;65.15;101545.77;107897;1279;74799;-85
2022/07/06 02:01:33;;;;;;;6.40;1.20;;;;;;;15.20;65.16;101546.60;107652;1279;71164;-86
2022/07/06 02:04:00;;;;;;;3.70;0.90;;;;;;;15.18;65.10;101541.77;107861;1279;73024;-86
2022/07/06 02:06:28;;;;;;;3.50;0.90;;;;;;;15.17;65.38;101544.05;107651;1279;63346;-85
2022/07/06 02:08:55;;;;;;;3.60;1.00;;;;;;;15.16;65.43;101542.04;107646;1279;61757;-86
2022/07/06 02:11:22;;;;;;;3.70;1.10;;;;;;;15.15;65.73;101541.11;107840;1279;75684;-86
2022/07/06 02:13:50;;;;;;;2.80;0.80;;;;;;;15.13;66.06;101541.34;107668;1279;69717;-86
2022/07/06 02:16:17;;;;;;;3.70;1.10;;;;;;;15.13;66.11;101542.02;107591;1279;74284;-87
2022/07/06 02:18:44;;;;;;;3.10;1.00;;;;;;;15.12;66.60;101541.84;107804;1279;63628;-85
2022/07/06 02:21:11;;;;;;;4.00;1.00;;;;;;;15.10;66.67;101535.64;107881;1279;62341;-86
2022/07/06 02:23:38;;;;;;;3.70;0.90;;;;;;;15.10;66.80;101538.45;107639;1281;76459;-86
2022/07/06 02:26:06;;;;;;;4.70;1.00;;;;;;;15.09;66.84;101543.05;107471;1279;71399;-87
2022/07/06 02:28:33;;;;;;;3.50;1.20;;;;;;;15.06;67.04;101544.23;107759;1279;73459;-85
2022/07/06 02:31:00;;;;;;;4.40;1.10;;;;;;;15.04;67.34;101546.59;107803;1279;62232;-86
2022/07/06 02:33:27;;;;;;;4.70;1.30;;;;;;;15.02;67.67;101548.69;107602;1279;61798;-86
2022/07/06 02:35:54;;;;;;;4.00;1.10;;;;;;;14.99;67.54;101548.29;107720;1279;74636;-86
2022/07/06 02:38:21;;;;;;;1.70;0.80;;;;;;;14.96;68.03;101554.73;107860;1279;71008;-86
2022/07/06 02:40:49;;;;;;;2.60;1.00;;;;;;;14.92;68.25;101550.19;107502;1281;74349;-86
2022/07/06 02:43:16;;;;;;;4.80;1.40;;;;;;;14.88;68.55;101547.79;107901;1279;63450;-86
2022/07/06 02:45:43;;;;;;;4.60;1.20;;;;;;;14.86;68.76;101546.09;107647;1279;60518;-85
2022/07/06 02:48:10;;;;;;;4.20;1.20;;;;;;;14.84;69.05;101557.40;107587;1280;75092;-84
2022/07/06 02:50:37;;;;;;;5.70;1.00;;;;;;;14.80;69.11;101562.13;107760;1279;71099;-86
2022/07/06 02:53:04;;;;;;;3.70;1.10;;;;;;;14.78;69.19;101561.29;107594;1279;74207;-84
2022/07/06 02:55:31;;;;;;;4.00;1.20;;;;;;;14.77;69.27;101562.86;107613;1281;62220;-84
2022/07/06 02:57:58;;;;;;;3.80;1.00;;;;;;;14.74;69.51;101562.76;107617;1279;60641;-85
2022/07/06 03:00:25;;;;;;;4.10;1.20;;;;;;;14.72;69.57;101560.41;107974;1279;75251;-84
2022/07/06 03:02:51;;;;;;;3.70;1.00;;;;;;;14.69;69.80;101563.69;107697;1279;70273;-84
2022/07/06 03:05:18;;;;;;;4.20;0.90;;;;;;;14.66;69.85;101563.11;107433;1279;74221;-85
2022/07/06 03:07:45;;;;;;;4.00;1.30;;;;;;;14.65;69.74;101563.14;107690;1280;62038;-85
2022/07/06 03:10:12;;;;;;;4.60;1.20;;;;;;;14.64;69.90;101560.05;107471;1280;59640;-85
2022/07/06 03:12:39;;;;;;;4.40;1.10;;;;;;;14.66;69.75;101561.14;107883;1279;75117;-85
2022/07/06 03:15:09;;;;;;;6.50;1.30;;;;;;;14.65;69.83;101561.78;107579;1281;72004;-84
2022/07/06 03:17:36;;;;;;;3.60;1.00;;;;;;;14.64;69.94;101566.13;108066;1279;73190;-85
2022/07/06 03:20:07;;;;;;;4.70;1.20;;;;;;;14.62;70.19;101560.00;108175;1279;62285;-84
2022/07/06 03:22:34;;;;;;;6.00;1.20;;;;;;;14.61;70.26;101559.40;108152;1281;61749;-84
2022/07/06 03:25:00;;;;;;;5.70;1.30;;;;;;;14.61;70.25;101557.73;108173;1279;75050;-84
2022/07/06 03:27:27;;;;;;;3.60;1.20;;;;;;;14.63;70.07;101557.19;108249;1280;71532;-84
2022/07/06 03:29:54;;;;;;;4.80;1.00;;;;;;;14.61;70.31;101556.87;108294;1281;72975;-84
2022/07/06 03:32:21;;;;;;;4.30;1.10;;;;;;;14.58;70.58;101555.09;108230;1279;62919;-84
2022/07/06 03:34:48;;;;;;;5.90;1.10;;;;;;;14.57;70.78;101560.88;108104;1280;61783;-84
2022/07/06 03:37:15;;;;;;;4.40;1.00;;;;;;;14.57;70.54;101558.81;108424;1279;74977;-83
2022/07/06 03:39:42;;;;;;;4.20;1.20;;;;;;;14.57;70.77;101560.98;108129;1279;72012;-84
2022/07/06 03:42:09;;;;;;;3.60;1.20;;;;;;;14.59;70.93;101560.77;108038;1279;73051;-84
2022/07/06 03:44:41;;;;;;;3.60;1.00;;;;;;;14.59;70.81;101563.16;107807;1281;61954;-84
2022/07/06 03:47:08;;;;;;;5.10;1.10;;;;;;;14.59;70.89;101562.05;108037;1279;60328;-84
2022/07/06 03:49:35;;;;;;;3.50;0.90;;;;;;;14.60;70.98;101554.15;107725;1281;76334;-84
2022/07/06 03:52:02;;;;;;;6.50;1.10;;;;;;;14.63;70.72;101555.91;107850;1281;72562;-83
2022/07/06 03:54:29;;;;;;;9.70;1.50;;;;;;;14.67;70.84;101554.05;107724;1281;72483;-84
2022/07/06 03:56:56;;;;;;;5.00;1.40;;;;;;;14.71;70.83;101556.85;107788;1281;61258;-84
2022/07/06 03:59:23;;;;;;;4.40;1.20;;;;;;;14.72;70.93;101556.50;107683;1279;60426;-83
2022/07/06 04:01:52;;;;;;;5.40;1.50;;;;;;;14.76;70.78;101562.17;107707;1281;76192;-84
2022/07/06 04:04:19;;;;;;;7.20;1.50;;;;;;;14.79;70.94;101563.92;107903;1278;72701;-84
2022/07/06 04:06:46;;;;;;;6.60;1.50;;;;;;;14.81;70.86;101565.23;107619;1280;73896;-84
2022/07/06 04:09:13;;;;;;;5.30;1.30;;;;;;;14.85;70.89;101569.94;107939;1279;59256;-84
2022/07/06 04:11:40;;;;;;;5.90;1.10;;;;;;;14.85;70.73;101574.71;107866;1279;61297;-84
2022/07/06 04:14:07;;;;;;;5.00;1.30;;;;;;;14.86;70.61;101577.30;107872;1280;74442;-83
2022/07/06 04:16:34;;;;;;;5.80;1.30;;;;;;;14.87;70.77;101574.54;107979;1281;69741;-84
2022/07/06 04:19:01;;;;;;;7.20;1.40;;;;;;;14.88;70.64;101573.77;107908;1279;73341;-84
2022/07/06 04:21:28;;;;;;;5.10;1.10;;;;;;;14.89;70.57;101576.41;107841;1279;63636;-84
2022/07/06 04:23:55;;;;;;;3.80;0.90;;;;;;;14.90;70.64;101575.38;107805;1279;60773;-84
2022/07/06 04:26:22;;;;;;;4.70;1.20;;;;;;;14.91;70.72;101579.20;107787;1280;74994;-83
2022/07/06 04:28:49;;;;;;;6.20;1.30;;;;;;;14.89;70.95;101581.74;107583;1281;71582;-83
2022/07/06 04:31:16;;;;;;;5.90;1.20;;;;;;;14.90;70.80;101584.52;107571;1281;73955;-83
2022/07/06 04:33:43;;;;;;;6.40;1.30;;;;;;;14.87;71.10;101590.69;107782;1279;62496;-83
2022/07/06 04:36:11;;;;;;;5.30;1.10;;;;;;;14.85;71.15;101589.83;107566;1281;60712;-83
2022/07/06 04:38:38;;;;;;;8.20;1.30;;;;;;;14.85;71.30;101588.96;107800;1279;73915;-82
2022/07/06 04:41:05;;;;;;;5.90;1.40;;;;;;;14.92;71.23;101589.98;107824;1280;71130;-83
2022/07/06 04:43:32;;;;;;;5.30;1.40;;;;;;;14.97;71.09;101588.86;107991;1281;74942;-83
2022/07/06 04:46:01;;;;;;;6.10;1.30;;;;;;;15.03;70.89;101587.43;107923;1279;63751;-84
2022/07/06 04:48:30;;;;;;;10.60;2.00;;;;;;;15.13;70.85;101589.56;108073;1279;60420;-83
2022/07/06 04:50:56;;;;;;;8.40;1.50;;;;;;;15.24;70.46;101590.30;108111;1279;75394;-83
2022/07/06 04:53:23;;;;;;;8.80;1.40;;;;;;;15.32;70.49;101593.45;108002;1279;70544;-83
2022/07/06 04:55:50;;;;;;;8.00;1.30;;;;;;;15.41;70.28;101593.86;107986;1279;74724;-83
2022/07/06 04:58:17;;;;;;;4.40;1.50;;;;;;;15.47;69.90;101594.90;107668;1281;61925;-83
2022/07/06 05:00:43;;;;;;;3.90;1.00;;;;;;;15.53;69.52;101596.98;107822;1280;60447;-82
2022/07/06 05:03:10;;;;;;;5.40;1.30;;;;;;;15.56;69.05;101596.45;108011;1279;74562;-83
2022/07/06 05:05:37;;;;;;;5.60;1.30;;;;;;;15.60;69.11;101585.92;107598;1282;70524;-83
2022/07/06 05:08:04;;;;;;;3.30;1.10;;;;;;;15.67;69.10;101583.33;107614;1281;73151;-82
2022/07/06 05:10:31;;;;;;;11.00;2.00;;;;;;;15.75;69.02;101580.41;107801;1280;62565;-83
2022/07/06 05:12:58;;;;;;;6.30;1.30;;;;;;;15.79;68.81;101577.39;107706;1280;61720;-83
2022/07/06 05:15:25;;;;;;;6.70;1.30;;;;;;;15.84;68.45;101572.80;107676;1281;74996;-83
2022/07/06 05:17:51;;;;;;;3.80;1.10;;;;;;;15.85;68.40;101575.44;107696;1279;71711;-83
2022/07/06 05:20:18;;;;;;;7.80;1.40;;;;;;;15.89;68.37;101573.50;107896;1279;73956;-83
2022/07/06 05:22:45;;;;;;;4.10;0.90;;;;;;;15.96;68.32;101574.05;107940;1279;64048;-83
2022/07/06 05:25:12;;;;;;;6.10;1.40;;;;;;;16.02;67.76;101577.56;107626;1281;60765;-83
2022/07/06 05:27:39;;;;;;;3.80;1.20;;;;;;;16.03;67.66;101579.25;107805;1279;76531;-84
2022/07/06 05:30:07;;;;;;;5.20;1.30;;;;;;;16.03;67.61;101578.40;107892;1279;72541;-83
2022/07/06 05:32:34;;;;;;;6.30;1.10;;;;;;;16.05;67.65;101585.16;107629;1279;72951;-83
2022/07/06 05:35:01;;;;;;;4.40;1.20;;;;;;;16.03;67.72;101590.20;107638;1279;62759;-83
2022/07/06 05:37:48;;;;;;;6.10;1.70;;;;;;;16.04;67.79;101588.57;107705;1279;62412;-83
2022/07/06 05:40:14;;;;;;;5.30;1.40;;;;;;;16.10;67.86;101588.55;107649;1279;76005;-83
2022/07/06 05:42:41;;;;;;;4.80;1.10;;;;;;;16.19;67.80;101589.93;107938;1279;71201;-83
2022/07/06 05:45:09;;;;;;;6.20;1.30;;;;;;;16.24;67.19;101591.62;107770;1278;73337;-83
2022/07/06 05:50:21;;;;;;;5.00;1.00;;;;;;;16.34;66.84;101585.66;107922;1279;61101;-83
2022/07/06 05:53:02;;;;;;;5.70;1.10;;;;;;;16.42;66.67;101590.23;107824;1279;76917;-83
2022/07/06 05:55:38;;;;;;;5.40;1.40;;;;;;;16.45;66.20;101591.77;107801;1279;71052;-83
2022/07/06 05:58:05;;;;;;;3.30;1.20;;;;;;;16.49;65.93;101590.80;107829;1279;72393;-83
2022/07/06 06:00:32;;;;;;;4.90;1.20;;;;;;;16.53;65.76;101589.15;107853;1279;62210;-83
2022/07/06 06:02:59;;;;;;;5.00;1.10;;;;;;;16.54;65.72;101587.98;107743;1281;59884;-83
2022/07/06 06:05:26;;;;;;;6.30;1.40;;;;;;;16.57;65.05;101592.23;107587;1279;75002;-83
2022/07/06 06:07:53;;;;;;;5.50;1.10;;;;;;;16.61;64.80;101592.23;107860;1279;72483;-83
2022/07/06 06:10:21;;;;;;;6.60;1.30;;;;;;;16.70;64.82;101594.31;107896;1279;74708;-82
2022/07/06 06:12:48;;;;;;;7.00;1.00;;;;;;;16.76;64.40;101594.83;107684;1281;63618;-82
2022/07/06 06:15:16;;;;;;;5.70;1.10;;;;;;;16.72;64.26;101600.55;107759;1279;62405;-83
2022/07/06 06:17:42;;;;;;;5.90;1.30;;;;;;;16.70;64.91;101600.72;107695;1279;76043;-83
2022/07/06 06:20:12;;;;;;;3.90;1.20;;;;;;;16.78;64.88;101596.44;107707;1279;71582;-83
2022/07/06 06:22:56;;;;;;;7.10;1.30;;;;;;;16.82;64.24;101601.62;107913;1279;74946;-83
2022/07/06 06:25:34;;;;;;;4.70;1.10;;;;;;;16.86;64.20;101600.25;107756;1278;63624;-83
2022/07/06 06:28:03;;;;;;;7.40;1.00;;;;;;;16.90;64.06;101601.63;107736;1279;60415;-83
2022/07/06 06:30:30;;;;;;;6.20;1.00;;;;;;;16.99;63.94;101602.37;107704;1279;75137;-82
2022/07/06 06:33:12;;;;;;;3.50;0.90;;;;;;;17.11;63.49;101604.39;107753;1279;72171;-83
2022/07/06 06:35:43;;;;;;;6.70;1.40;;;;;;;17.20;62.82;101608.08;107470;1281;72965;-83
2022/07/06 06:38:10;;;;;;;6.40;1.00;;;;;;;17.28;62.62;101608.46;107542;1279;63549;-83
2022/07/06 06:40:37;;;;;;;4.20;0.90;;;;;;;17.34;62.46;101604.20;107699;1279;61471;-83
2022/07/06 06:43:05;;;;;;;6.30;1.10;;;;;;;17.45;62.20;101605.50;107698;1279;76240;-82
2022/07/06 06:45:32;;;;;;;6.40;1.10;;;;;;;17.48;61.26;101608.66;107612;1279;72567;-82
2022/07/06 06:47:59;;;;;;;5.20;1.30;;;;;;;17.44;60.07;101609.41;107588;1279;72650;-83
2022/07/06 06:50:27;;;;;;;3.80;1.00;;;;;;;17.42;60.86;101611.23;107906;1279;60892;-83
2022/07/06 06:52:54;;;;;;;3.80;0.90;;;;;;;17.42;60.67;101609.11;107697;1279;61091;-82
2022/07/06 06:55:21;;;;;;;7.50;1.00;;;;;;;17.42;60.10;101619.52;107750;1279;74992;-82
2022/07/06 06:57:48;;;;;;;5.00;0.80;;;;;;;17.43;59.41;101624.59;107867;1279;71908;-82
2022/07/06 07:00:15;;;;;;;7.00;1.00;;;;;;;17.41;59.30;101619.02;107972;1279;73423;-82
2022/07/06 07:02:42;;;;;;;8.00;1.40;;;;;;;17.44;59.73;101622.80;107644;1279;61541;-82
2022/07/06 07:05:10;;;;;;;6.40;1.30;;;;;;;17.41;59.66;101624.10;107878;1278;60774;-83
2022/07/06 07:07:37;;;;;;;7.70;1.20;;;;;;;17.43;59.78;101625.35;108028;1279;74878;-83
2022/07/06 07:10:05;;;;;;;7.40;1.00;;;;;;;17.47;59.67;101628.01;107670;1279;72356;-83
2022/07/06 07:12:33;;;;;;;3.80;1.00;;;;;;;17.54;59.90;101629.12;107608;1279;76239;-83
2022/07/06 07:15:00;;;;;;;4.30;1.20;;;;;;;17.53;59.65;101627.91;107739;1279;60840;-83
2022/07/06 07:17:27;;;;;;;3.40;0.90;;;;;;;17.45;59.74;101631.79;107787;1279;60587;-82
2022/07/06 07:19:55;;;;;;;2.80;0.90;;;;;;;17.46;59.79;101631.48;107822;1279;76352;-83
2022/07/06 07:22:22;;;;;;;5.00;1.20;;;;;;;17.48;59.45;101634.32;107470;1279;72441;-83
2022/07/06 07:24:49;;;;;;;4.20;0.90;;;;;;;17.39;58.86;101634.23;107724;1279;74348;-82
2022/07/06 07:27:17;;;;;;;4.60;1.00;;;;;;;17.37;59.24;101637.27;107993;1279;61891;-82
2022/07/06 07:29:43;;;;;;;3.80;0.70;;;;;;;17.40;59.24;101643.35;107915;1279;59795;-83
2022/07/06 07:32:11;;;;;;;4.30;0.90;;;;;;;17.40;59.04;101645.70;107901;1279;75994;-83
2022/07/06 07:34:38;;;;;;;6.10;1.20;;;;;;;17.27;58.55;101651.98;107977;1279;72409;-83
2022/07/06 07:37:04;;;;;;;10.30;1.50;;;;;;;17.23;58.50;101650.17;108023;1279;73218;-83
2022/07/06 07:39:31;;;;;;;4.30;1.20;;;;;;;17.22;57.22;101660.02;107890;1279;59402;-83
2022/07/06 07:41:58;;;;;;;6.20;1.20;;;;;;;17.27;57.22;101660.93;108239;1279;60682;-83
2022/07/06 07:44:27;;;;;;;5.80;1.10;;;;;;;17.31;57.90;101661.65;108189;1279;74915;-83
2022/07/06 07:46:54;;;;;;;3.80;0.60;;;;;;;17.46;57.35;101654.98;107931;1279;71511;-83
2022/07/06 07:49:21;;;;;;;2.70;0.70;;;;;;;17.56;55.55;101656.91;107725;1281;74301;-82
2022/07/06 07:51:49;;;;;;;2.20;0.70;;;;;;;17.66;54.41;101649.65;108054;1279;60492;-83
2022/07/06 07:54:16;;;;;;;3.80;0.60;;;;;;;17.77;52.69;101655.27;108151;1279;59969;-83
2022/07/06 07:56:43;;;;;;;3.30;0.40;;;;;;;17.87;52.10;101654.17;108298;1277;74915;-83
2022/07/06 07:59:10;;;;;;;6.70;0.90;;;;;;;17.97;52.09;101657.05;108300;1279;72304;-82
2022/07/06 08:01:37;;;;;;;4.00;0.70;;;;;;;18.09;51.73;101654.83;107959;1279;72493;-83
2022/07/06 08:04:05;;;;;;;4.20;0.60;;;;;;;18.26;51.55;101652.61;108014;1279;59030;-82
2022/07/06 08:06:32;;;;;;;3.80;0.80;;;;;;;18.38;51.14;101659.30;108197;1279;60520;-82
2022/07/06 08:08:59;;;;;;;5.00;0.70;;;;;;;18.34;50.24;101659.95;108096;1279;74902;-83
2022/07/06 08:11:26;;;;;;;7.10;0.80;;;;;;;18.43;49.89;101653.69;107873;1279;75229;-82
2022/07/06 08:13:52;;;;;;;3.70;0.60;;;;;;;18.53;50.07;101649.28;107894;1279;72971;-82
2022/07/06 08:16:19;;;;;;;2.60;0.60;;;;;;;18.62;49.68;101652.02;107949;1279;60233;-82
2022/07/06 08:18:47;;;;;;;3.40;0.70;;;;;;;18.60;48.70;101651.52;108054;1279;60366;-82
2022/07/06 08:21:13;;;;;;;3.10;0.60;;;;;;;18.65;48.72;101648.30;108033;1279;74961;-82
2022/07/06 08:23:51;;;;;;;4.80;1.10;;;;;;;18.70;49.56;101656.45;108112;1279;71123;-83
2022/07/06 08:26:18;;;;;;;8.90;1.50;;;;;;;18.69;50.09;101656.98;107750;1279;72619;-83
2022/07/06 08:28:45;;;;;;;4.60;1.00;;;;;;;18.71;50.34;101656.86;107700;1279;60617;-83
2022/07/06 08:31:12;;;;;;;4.90;0.90;;;;;;;18.61;50.31;101663.80;108124;1279;61446;-83
2022/07/06 08:33:59;;;;;;;5.70;1.00;;;;;;;18.54;50.23;101658.66;108013;1279;72573;-82
2022/07/06 08:36:26;;;;;;;4.10;0.80;;;;;;;18.54;50.25;101654.77;108057;1279;70676;-82
2022/07/06 08:38:54;;;;;;;4.50;0.90;;;;;;;18.60;50.49;101656.23;107917;1279;74311;-82
2022/07/06 08:41:25;;;;;;;6.30;1.10;;;;;;;18.75;50.77;101655.77;107770;1279;60733;-82
2022/07/06 08:43:53;;;;;;;4.50;0.60;;;;;;;18.90;50.46;101651.20;107676;1280;61558;-82
2022/07/06 08:46:21;;;;;;;8.20;1.20;;;;;;;18.99;49.85;101649.33;107717;1279;77145;-83
2022/07/06 08:48:49;;;;;;;5.50;0.80;;;;;;;19.09;48.99;101649.29;107638;1279;71959;-81
2022/07/06 08:51:17;;;;;;;4.80;0.70;;;;;;;19.15;48.30;101645.14;107914;1279;74534;-81
2022/07/06 08:53:48;;;;;;;2.70;0.50;;;;;;;19.21;47.59;101643.89;108047;1279;60450;-83
2022/07/06 08:56:16;;;;;;;2.00;0.40;;;;;;;19.40;47.31;101645.69;107703;1279;60712;-82
2022/07/06 08:58:43;;;;;;;4.10;0.70;;;;;;;19.46;44.49;101648.15;107639;1279;75992;-83
2022/07/06 09:01:10;;;;;;;3.80;1.00;;;;;;;19.36;45.84;101643.46;107981;1279;70660;-83
2022/07/06 09:03:41;;;;;;;2.70;0.50;;;;;;;19.36;46.68;101644.16;107656;1279;72276;-83
2022/07/06 09:06:08;;;;;;;3.60;0.90;;;;;;;19.25;47.50;101647.90;107696;1279;60803;-83
2022/07/06 09:08:39;;;;;;;2.90;0.70;;;;;;;19.16;47.74;101646.18;107966;1279;61897;-83
2022/07/06 09:11:07;;;;;;;4.70;0.70;;;;;;;19.07;47.37;101644.54;107650;1281;76202;-83
2022/07/06 09:13:34;;;;;;;5.20;0.70;;;;;;;19.09;47.50;101643.86;107878;1279;74485;-82
2022/07/06 09:16:15;;;;;;;3.40;0.70;;;;;;;19.06;47.52;101646.35;108101;1279;73949;-82
2022/07/06 09:19:02;;;;;;;3.90;0.50;;;;;;;19.10;48.05;101643.24;108166;1279;61530;-82
2022/07/06 09:21:36;;;;;;;4.60;0.80;;;;;;;19.26;47.97;101648.03;107743;1279;60863;-82
2022/07/06 09:24:10;;;;;;;3.50;0.60;;;;;;;19.53;47.13;101653.03;108006;1279;74754;-82
2022/07/06 09:26:38;;;;;;;8.10;1.00;;;;;;;19.66;46.07;101656.80;107916;1279;73147;-82
2022/07/06 09:29:06;;;;;;;5.00;0.90;;;;;;;19.68;45.57;101652.16;108180;1279;73172;-82
2022/07/06 09:31:33;;;;;;;2.80;0.60;;;;;;;19.71;45.59;101645.54;108263;1279;60453;-83
2022/07/06 09:34:05;;;;;;;4.70;0.60;;;;;;;19.77;45.67;101647.23;108289;1279;60658;-81
2022/07/06 09:36:44;;;;;;;3.40;0.70;;;;;;;20.05;45.24;101642.42;107921;1281;74311;-82
2022/07/06 09:39:16;;;;;;;2.70;0.70;;;;;;;20.39;44.41;101635.63;108123;1279;71731;-81
2022/07/06 09:41:48;;;;;;;2.80;0.60;;;;;;;20.61;43.54;101638.95;108190;1279;71778;-82
2022/07/06 09:44:28;;;;;;;2.10;0.60;;;;;;;20.67;42.97;101630.09;108190;1279;61167;-81
2022/07/06 09:46:57;;;;;;;2.60;0.80;;;;;;;20.68;41.80;101638.03;108331;1279;61664;-82
2022/07/06 09:49:25;;;;;;;3.30;0.50;;;;;;;20.84;41.37;101633.36;108198;1279;72758;-80
2022/07/06 09:51:54;;;;;;;2.10;0.50;;;;;;;20.78;41.66;101631.63;108291;1279;71457;-82
2022/07/06 09:54:22;;;;;;;1.70;0.50;;;;;;;20.71;41.54;101635.91;108231;1279;72370;-81
2022/07/06 09:56:52;;;;;;;1.40;0.30;;;;;;;20.58;41.76;101634.45;108392;1279;60951;-82
2022/07/06 09:59:26;;;;;;;1.90;0.40;;;;;;;20.36;42.04;101624.21;107900;1279;60873;-81
2022/07/06 10:01:57;;;;;;;4.40;0.70;;;;;;;20.13;42.77;101637.16;107673;1279;74915;-82
2022/07/06 10:04:26;;;;;;;3.70;0.70;;;;;;;19.94;43.47;101635.35;107573;1279;73135;-81
2022/07/06 10:06:54;;;;;;;2.20;0.50;;;;;;;19.83;43.97;101637.21;107905;1279;73062;-81
2022/07/06 10:09:23;;;;;;;4.50;0.60;;;;;;;19.76;43.37;101637.61;107979;1279;62598;-81
2022/07/06 10:11:59;;;;;;;3.70;0.60;;;;;;;19.75;43.31;101630.83;107839;1279;61558;-81
2022/07/06 10:14:28;;;;;;;5.40;0.70;;;;;;;19.81;43.60;101632.67;107900;1279;77651;-82
2022/07/06 10:16:57;;;;;;;2.90;0.60;;;;;;;19.81;43.76;101634.98;107799;1279;72886;-82
2022/07/06 10:19:25;;;;;;;2.90;0.50;;;;;;;19.91;44.22;101628.60;107878;1279;72973;-81
2022/07/06 10:21:53;;;;;;;2.40;0.50;;;;;;;20.04;43.49;101629.67;107969;1279;59169;-82
2022/07/06 10:24:20;;;;;;;2.20;0.50;;;;;;;20.21;43.48;101629.20;107817;1279;61099;-81
2022/07/06 10:26:48;;;;;;;2.80;0.70;;;;;;;20.41;42.53;101639.48;107921;1279;75244;-81
2022/07/06 10:29:16;;;;;;;6.40;0.70;;;;;;;20.50;41.93;101635.69;107929;1279;71466;-81
2022/07/06 10:31:47;;;;;;;2.70;0.40;;;;;;;20.53;41.93;101636.47;107899;1279;73055;-82
2022/07/06 10:34:17;;;;;;;3.10;0.50;;;;;;;20.37;41.68;101647.79;107638;1279;62269;-82
2022/07/06 10:36:50;;;;;;;3.10;0.70;;;;;;;20.23;42.11;101644.60;107875;1279;61690;-81
2022/07/06 10:42:55;;;;;;;4.30;0.60;;;;;;;20.16;40.97;101640.34;108018;1279;71113;-81
2022/07/06 10:45:44;;;;;;;1.90;0.30;;;;;;;20.22;40.57;101632.92;107744;1279;72903;-82
2022/07/06 10:48:11;;;;;;;2.50;0.40;;;;;;;20.15;40.93;101632.55;107946;1279;60781;-82
2022/07/06 10:50:56;;;;;;;3.30;0.50;;;;;;;20.27;40.68;101636.66;108008;1279;61510;-82
2022/07/06 10:53:27;;;;;;;3.30;0.40;;;;;;;20.24;40.05;101630.09;108037;1277;74959;-82
2022/07/06 10:55:56;;;;;;;3.10;0.50;;;;;;;20.18;40.09;101632.48;107844;1279;71350;-82
2022/07/06 10:58:36;;;;;;;2.00;0.50;;;;;;;19.99;40.32;101632.55;107906;1278;73379;-82
2022/07/06 11:01:09;;;;;;;2.70;0.90;;;;;;;19.99;40.38;101633.05;107581;1279;60999;-81
2022/07/06 11:03:50;;;;;;;1.60;0.40;;;;;;;20.07;39.56;101635.07;107663;1279;59499;-82
2022/07/06 11:06:22;;;;;;;2.10;0.40;;;;;;;20.19;39.17;101622.88;107969;1279;74983;-82
2022/07/06 11:08:52;;;;;;;3.00;0.40;;;;;;;20.38;38.94;101619.31;108264;1279;72171;-81
2022/07/06 11:11:26;;;;;;;2.10;0.70;;;;;;;20.47;38.57;101618.17;108093;1279;72943;-81
2022/07/06 11:14:09;;;;;;;1.00;0.30;;;;;;;20.52;37.98;101619.81;108027;1279;60710;-81
2022/07/06 11:17:00;;;;;;;3.30;0.40;;;;;;;20.61;38.46;101620.50;107905;1279;60839;-81
2022/07/06 11:19:27;;;;;;;1.70;0.60;;;;;;;20.70;38.36;101621.89;107642;1279;75669;-82
2022/07/06 11:22:05;;;;;;;2.20;0.40;;;;;;;20.87;37.29;101612.70;107573;1279;72512;-81
2022/07/06 11:24:34;;;;;;;2.90;0.20;;;;;;;21.16;36.81;101613.71;107830;1279;72868;-80
2022/07/06 11:27:02;;;;;;;2.40;0.50;;;;;;;21.35;36.25;101611.98;107925;1278;60679;-80
2022/07/06 11:29:30;;;;;;;1.00;0.20;;;;;;;21.54;36.52;101611.97;107757;1279;60475;-81